createdAt,value
2023-04-24T00:01:13.928Z,-23494.66
2023-04-24T00:03:16.890Z,-23490.69
2023-04-24T00:05:19.881Z,-23490.22
2023-04-24T00:07:22.693Z,-23491.47
2023-04-24T00:09:27.122Z,-23487.19
2023-04-24T00:11:29.992Z,-23486.56
2023-04-24T00:13:32.601Z,-23487.19
2023-04-24T00:15:35.295Z,-23484.66
2023-04-24T00:17:38.213Z,-23484.66
2023-04-24T00:19:41.294Z,-23486.72
2023-04-24T00:21:44.299Z,-23485.13
2023-04-24T00:23:47.268Z,-23489.72
2023-04-24T00:25:51.502Z,-23491.00
2023-04-24T00:27:54.291Z,-23490.03
2023-04-24T00:29:57.066Z,-23488.78
2023-04-24T00:32:00.040Z,-23488.63
2023-04-24T00:34:03.299Z,-23490.03
2023-04-24T00:36:06.838Z,-23489.41
2023-04-24T00:38:11.006Z,-23492.44
2023-04-24T00:40:14.001Z,-23493.06
2023-04-24T00:42:18.144Z,-23495.75
2023-04-24T00:44:20.990Z,-23497.03
2023-04-24T00:46:24.096Z,-23496.06
2023-04-24T00:48:27.507Z,-23499.25
2023-04-24T00:50:31.410Z,-23500.19
2023-04-24T00:52:34.248Z,-23500.50
2023-04-24T00:54:37.004Z,-23500.50
2023-04-24T00:56:39.788Z,-23500.66
2023-04-24T00:58:44.354Z,-23501.47
2023-04-24T01:00:48.229Z,-23500.19
2023-04-24T01:02:52.953Z,-23499.06
2023-04-24T01:04:56.017Z,-23497.03
2023-04-24T01:06:59.023Z,-23496.38
2023-04-24T01:09:02.300Z,-23497.34
2023-04-24T01:11:06.606Z,-23495.91
2023-04-24T01:13:10.096Z,-23496.22
2023-04-24T01:15:14.132Z,-23497.19
2023-04-24T01:17:16.826Z,-23498.28
2023-04-24T01:19:21.085Z,-23497.97
2023-04-24T01:21:25.490Z,-23500.03
2023-04-24T01:23:29.552Z,-23502.41
2023-04-24T01:25:32.862Z,-23499.56
2023-04-24T01:27:35.531Z,-23500.81
2023-04-24T01:29:38.519Z,-23502.09
2023-04-24T01:31:41.660Z,-23502.09
2023-04-24T01:33:44.793Z,-23502.41
2023-04-24T01:35:47.725Z,-23499.72
2023-04-24T01:37:50.357Z,-23497.50
2023-04-24T01:39:54.431Z,-23500.50
2023-04-24T01:41:57.959Z,-23498.94
2023-04-24T01:44:00.637Z,-23497.03
2023-04-24T01:46:03.687Z,-23496.06
2023-04-24T01:48:07.156Z,-23497.19
2023-04-24T01:50:11.239Z,-23494.97
2023-04-24T01:52:13.844Z,-23494.81
2023-04-24T01:54:16.490Z,-23494.16
2023-04-24T01:56:21.727Z,-23490.03
2023-04-24T01:58:24.888Z,-23487.50
2023-04-24T02:00:27.723Z,-23490.03
2023-04-24T02:02:31.087Z,-23485.91
2023-04-24T02:04:34.022Z,-23485.59
2023-04-24T02:06:36.997Z,-23487.19
2023-04-24T02:08:39.617Z,-23487.34
2023-04-24T02:10:42.261Z,-23488.47
2023-04-24T02:12:46.276Z,-23489.41
2023-04-24T02:14:48.918Z,-23488.47
2023-04-24T02:16:51.662Z,-23488.78
2023-04-24T02:18:54.439Z,-23485.28
2023-04-24T02:20:57.097Z,-23486.25
2023-04-24T02:22:59.708Z,-23484.19
2023-04-24T02:25:02.625Z,-23485.59
2023-04-24T02:27:05.897Z,-23482.13
2023-04-24T02:29:09.883Z,-23481.16
2023-04-24T02:31:12.799Z,-23479.59
2023-04-24T02:33:15.697Z,-23480.22
2023-04-24T02:35:18.430Z,-23481.47
2023-04-24T02:37:21.221Z,-23480.69
2023-04-24T02:39:24.150Z,-23481.16
2023-04-24T02:41:32.198Z,-23482.91
2023-04-24T02:43:35.155Z,-23482.13
2023-04-24T02:45:39.575Z,-23483.06
2023-04-24T02:47:42.315Z,-23486.25
2023-04-24T02:49:45.147Z,-23486.88
2023-04-24T02:51:47.901Z,-23484.66
2023-04-24T02:53:50.593Z,-23486.09
2023-04-24T02:55:53.263Z,-23486.56
2023-04-24T02:57:56.107Z,-23490.03
2023-04-24T02:59:58.764Z,-23487.50
2023-04-24T03:02:02.769Z,-23486.72
2023-04-24T03:04:05.636Z,-23485.75
2023-04-24T03:06:08.967Z,-23484.03
2023-04-24T03:08:12.381Z,-23484.03
2023-04-24T03:10:15.085Z,-23482.91
2023-04-24T03:12:18.752Z,-23481.47
2023-04-24T03:14:21.446Z,-23487.19
2023-04-24T03:16:24.254Z,-23476.72
2023-04-24T03:18:28.290Z,-23475.47
2023-04-24T03:20:31.106Z,-23472.91
2023-04-24T03:22:34.732Z,-23472.59
2023-04-24T03:24:37.439Z,-23472.28
2023-04-24T03:26:40.105Z,-23471.97
2023-04-24T03:28:42.752Z,-23469.75
2023-04-24T03:30:45.638Z,-23469.13
2023-04-24T03:32:48.406Z,-23468.31
2023-04-24T03:34:52.425Z,-23467.06
2023-04-24T03:36:55.092Z,-23466.44
2023-04-24T03:38:57.755Z,-23466.91
2023-04-24T03:41:00.425Z,-23466.91
2023-04-24T03:43:03.340Z,-23465.31
2023-04-24T03:45:06.770Z,-23465.94
2023-04-24T03:47:09.385Z,-23465.94
2023-04-24T03:49:11.975Z,-23466.25
2023-04-24T03:51:16.007Z,-23464.19
2023-04-24T03:53:18.645Z,-23465.47
2023-04-24T03:55:21.211Z,-23463.41
2023-04-24T03:57:24.013Z,-23463.88
2023-04-24T03:59:26.641Z,-23462.78
2023-04-24T04:01:29.331Z,-23461.50
2023-04-24T04:03:32.254Z,-23460.25
2023-04-24T04:05:35.150Z,-23459.91
2023-04-24T04:07:39.236Z,-23460.25
2023-04-24T04:09:42.251Z,-23460.25
2023-04-24T04:11:45.260Z,-23461.19
2023-04-24T04:13:48.838Z,-23461.19
2023-04-24T04:15:51.595Z,-23462.13
2023-04-24T04:17:54.392Z,-23463.41
2023-04-24T04:19:57.307Z,-23465.63
2023-04-24T04:22:00.121Z,-23465.63
2023-04-24T04:24:06.366Z,-23466.75
2023-04-24T04:26:09.896Z,-23469.13
2023-04-24T04:28:12.833Z,-23468.31
2023-04-24T04:30:16.028Z,-23468.81
2023-04-24T04:32:18.790Z,-23471.03
2023-04-24T04:34:22.970Z,-23468.50
2023-04-24T04:36:27.510Z,-23468.00
2023-04-24T04:38:30.966Z,-23466.25
2023-04-24T04:40:36.233Z,-23465.94
2023-04-24T04:42:41.427Z,-23455.00
2023-04-24T04:44:45.845Z,-23451.84
2023-04-24T04:46:48.593Z,-23445.66
2023-04-24T04:48:51.224Z,-23442.78
2023-04-24T04:50:53.880Z,-23440.25
2023-04-24T04:52:56.790Z,-23443.91
2023-04-24T04:54:59.407Z,-23441.53
2023-04-24T04:57:04.417Z,-23439.28
2023-04-24T04:59:07.245Z,-23441.53
2023-04-24T05:01:10.008Z,-23438.19
2023-04-24T05:03:20.747Z,-23438.66
2023-04-24T05:05:24.166Z,-23434.84
2023-04-24T05:07:26.817Z,-23432.31
2023-04-24T05:09:30.452Z,-23438.97
2023-04-24T05:11:33.146Z,-23434.06
2023-04-24T05:13:40.374Z,-23432.94
2023-04-24T05:15:43.879Z,-23435.16
2023-04-24T05:17:46.705Z,-23440.25
2023-04-24T05:19:49.430Z,-23442.31
2023-04-24T05:21:52.081Z,-23439.59
2023-04-24T05:23:54.752Z,-23438.19
2023-04-24T05:25:57.368Z,-23442.47
2023-04-24T05:28:00.134Z,-23438.66
2023-04-24T05:30:05.582Z,-23437.72
2023-04-24T05:32:08.294Z,-23438.19
2023-04-24T05:34:11.186Z,-23443.41
2023-04-24T05:36:14.189Z,-23446.91
2023-04-24T05:38:18.856Z,-23441.19
2023-04-24T05:40:21.714Z,-23438.66
2023-04-24T05:42:24.431Z,-23441.19
2023-04-24T05:44:27.094Z,-23443.75
2023-04-24T05:46:31.232Z,-23448.50
2023-04-24T05:48:33.833Z,-23443.41
2023-04-24T05:50:37.189Z,-23444.53
2023-04-24T05:52:39.998Z,-23445.66
2023-04-24T05:54:42.986Z,-23447.38
2023-04-24T05:56:45.756Z,-23445.66
2023-04-24T05:58:48.586Z,-23439.78
2023-04-24T06:00:51.297Z,-23441.34
2023-04-24T06:02:55.576Z,-23440.09
2023-04-24T06:05:00.022Z,-23448.03
2023-04-24T06:07:03.849Z,-23442.31
2023-04-24T06:09:06.494Z,-23447.53
2023-04-24T06:11:09.103Z,-23446.44
2023-04-24T06:13:12.254Z,-23444.69
2023-04-24T06:15:14.855Z,-23452.00
2023-04-24T06:17:18.005Z,-23455.16
2023-04-24T06:19:22.094Z,-23459.91
2023-04-24T06:21:24.749Z,-23457.69
2023-04-24T06:23:27.552Z,-23461.66
2023-04-24T06:25:30.598Z,-23487.84
2023-04-24T06:27:33.263Z,-23487.19
2023-04-24T06:29:35.951Z,-23480.53
2023-04-24T06:31:38.760Z,-23493.53
2023-04-24T06:33:41.481Z,-23487.50
2023-04-24T06:35:45.682Z,-23497.66
2023-04-24T06:37:48.599Z,-23497.81
2023-04-24T06:39:51.226Z,-23505.25
2023-04-24T06:41:53.844Z,-23502.41
2023-04-24T06:43:56.577Z,-23500.97
2023-04-24T06:45:59.776Z,-23498.28
2023-04-24T06:48:02.670Z,-23512.22
2023-04-24T06:50:06.124Z,-23523.31
2023-04-24T06:52:10.359Z,-23525.69
2023-04-24T06:54:13.109Z,-23524.09
2023-04-24T06:56:16.167Z,-23522.38
2023-04-24T06:58:18.849Z,-23529.34
2023-04-24T07:00:21.845Z,-23514.75
2023-04-24T07:02:24.914Z,-23518.88
2023-04-24T07:04:27.989Z,-23510.50
2023-04-24T07:06:31.629Z,-23528.06
2023-04-24T07:08:36.811Z,-23524.09
2023-04-24T07:10:39.606Z,-23530.13
2023-04-24T07:12:42.403Z,-23516.19
2023-04-24T07:14:45.163Z,-23525.22
2023-04-24T07:16:48.514Z,-23540.56
2023-04-24T07:18:51.153Z,-23518.25
2023-04-24T07:20:53.840Z,-23516.03
2023-04-24T07:22:56.469Z,-23514.44
2023-04-24T07:25:00.419Z,-23501.28
2023-04-24T07:27:03.325Z,-23499.06
2023-04-24T07:29:06.015Z,-23494.31
2023-04-24T07:31:08.926Z,-23484.97
2023-04-24T07:33:14.058Z,-23483.06
2023-04-24T07:35:16.875Z,-23482.91
2023-04-24T07:37:19.665Z,-23495.44
2023-04-24T07:39:22.343Z,-23500.19
2023-04-24T07:41:26.457Z,-23493.22
2023-04-24T07:43:29.164Z,-23512.06
2023-04-24T07:45:32.211Z,-23544.22
2023-04-24T07:47:35.437Z,-23570.16
2023-04-24T07:49:38.271Z,-23577.91
2023-04-24T07:51:42.270Z,-23557.34
2023-04-24T07:53:45.713Z,-23565.88
2023-04-24T07:55:48.466Z,-23551.97
2023-04-24T07:57:53.129Z,-23527.44
2023-04-24T07:59:56.179Z,-23539.16
2023-04-24T08:01:58.803Z,-23530.28
2023-04-24T08:04:01.623Z,-23536.59
2023-04-24T08:06:04.808Z,-23529.97
2023-04-24T08:08:07.452Z,-23523.63
2023-04-24T08:10:12.169Z,-23519.81
2023-04-24T08:12:14.823Z,-23525.53
2023-04-24T08:14:18.844Z,-23519.50
2023-04-24T08:16:21.551Z,-23506.53
2023-04-24T08:18:24.606Z,-23511.91
2023-04-24T08:20:27.383Z,-23502.56
2023-04-24T08:22:30.436Z,-23517.63
2023-04-24T08:24:33.071Z,-23528.84
2023-04-24T08:26:35.915Z,-23534.06
2023-04-24T08:28:38.680Z,-23523.31
2023-04-24T08:30:42.709Z,-23518.25
2023-04-24T08:32:45.715Z,-23542.00
2023-04-24T08:34:49.667Z,-23549.75
2023-04-24T08:36:52.800Z,-23542.00
2023-04-24T08:38:55.451Z,-23571.09
2023-04-24T08:41:00.485Z,-23566.34
2023-04-24T08:43:03.111Z,-23570.47
2023-04-24T08:45:07.249Z,-23570.47
2023-04-24T08:47:13.502Z,-23595.75
2023-04-24T08:49:18.221Z,-23602.69
2023-04-24T08:51:22.298Z,-23556.53
2023-04-24T08:53:26.820Z,-23567.63
2023-04-24T08:55:32.520Z,-23566.50
2023-04-24T08:57:36.841Z,-23581.53
2023-04-24T08:59:40.529Z,-23558.91
2023-04-24T09:01:43.805Z,-23546.44
2023-04-24T09:05:55.326Z,-23556.38
2023-04-24T09:07:59.066Z,-23614.06
2023-04-24T09:10:03.009Z,-23601.44
2023-04-24T09:12:06.046Z,-23595.75
2023-04-24T09:14:09.374Z,-23604.28
2023-04-24T09:16:12.266Z,-23632.56
2023-04-24T09:18:14.996Z,-23594.66
2023-04-24T09:20:19.156Z,-23586.28
2023-04-24T09:22:22.343Z,-23536.28
2023-04-24T09:24:25.184Z,-23537.88
2023-04-24T09:26:27.983Z,-23524.41
2023-04-24T09:28:34.649Z,-23535.81
2023-04-24T09:30:37.143Z,-23541.34
2023-04-24T09:32:39.840Z,-23522.03
2023-04-24T09:34:44.931Z,-23522.69
2023-04-24T09:36:48.947Z,-23528.69
2023-04-24T09:38:59.490Z,-23534.56
2023-04-24T09:41:04.248Z,-23591.97
2023-04-24T09:43:12.843Z,-23619.91
2023-04-24T09:45:16.214Z,-23633.97
2023-04-24T09:47:19.156Z,-23624.50
2023-04-24T09:49:25.258Z,-23629.72
2023-04-24T09:51:38.517Z,-23598.91
2023-04-24T09:53:48.046Z,-23597.81
2023-04-24T09:55:51.473Z,-23557.81
2023-04-24T09:57:57.439Z,-23572.69
2023-04-24T10:00:00.156Z,-23566.34
2023-04-24T10:02:03.002Z,-23559.88
2023-04-24T10:04:06.505Z,-23549.44
2023-04-24T10:06:11.114Z,-23551.47
2023-04-24T10:08:14.378Z,-23548.31
2023-04-24T10:10:18.721Z,-23547.69
2023-04-24T10:12:21.588Z,-23539.63
2023-04-24T10:14:26.251Z,-23544.22
2023-04-24T10:16:29.748Z,-23561.13
2023-04-24T10:18:33.567Z,-23591.34
2023-04-24T10:20:37.964Z,-23617.22
2023-04-24T10:22:41.733Z,-23601.75
2023-04-24T10:24:45.809Z,-23627.97
2023-04-24T10:26:50.229Z,-23612.50
2023-04-24T10:28:54.176Z,-23579.00
2023-04-24T10:30:56.980Z,-23592.28
2023-04-24T10:32:59.639Z,-23598.44
2023-04-24T10:35:02.402Z,-23595.28
2023-04-24T10:37:05.664Z,-23592.91
2023-04-24T10:39:11.725Z,-23600.81
2023-04-24T10:41:17.396Z,-23603.34
2023-04-24T10:43:21.596Z,-23589.91
2023-04-24T10:45:26.127Z,-23583.44
2023-04-24T10:47:28.824Z,-23557.50
2023-04-24T10:49:33.165Z,-23551.16
2023-04-24T10:51:48.210Z,-23549.44
2023-04-24T10:53:52.229Z,-23538.84
2023-04-24T10:56:00.765Z,-23554.03
2023-04-24T10:58:04.800Z,-23537.41
2023-04-24T11:00:20.871Z,-23529.34
2023-04-24T11:02:38.275Z,-23529.97
2023-04-24T11:04:40.972Z,-23526.47
2023-04-24T11:06:44.299Z,-23535.97
2023-04-24T11:08:47.956Z,-23532.19
2023-04-24T11:11:10.292Z,-23517.94
2023-04-24T11:13:16.051Z,-23522.38
2023-04-24T11:15:20.910Z,-23507.78
2023-04-24T11:17:32.768Z,-23511.75
2023-04-24T11:19:37.650Z,-23509.22
2023-04-24T11:21:44.788Z,-23503.50
2023-04-24T11:23:47.823Z,-23508.75
2023-04-24T11:26:12.254Z,-23511.59
2023-04-24T11:28:17.159Z,-23501.47
2023-04-24T11:30:22.415Z,-23511.91
2023-04-24T11:32:29.747Z,-23520.00
2023-04-24T11:34:34.361Z,-23531.53
2023-04-24T11:36:37.780Z,-23537.25
2023-04-24T11:38:41.183Z,-23525.84
2023-04-24T11:40:44.049Z,-23544.22
2023-04-24T11:42:48.450Z,-23540.56
2023-04-24T11:44:52.105Z,-23555.44
2023-04-24T11:46:58.089Z,-23535.34
2023-04-24T11:49:01.406Z,-23535.97
2023-04-24T11:51:04.276Z,-23519.81
2023-04-24T11:53:06.936Z,-23513.81
2023-04-24T11:55:24.391Z,-23491.94
2023-04-24T11:57:29.932Z,-23499.25
2023-04-24T11:59:37.787Z,-23497.81
2023-04-24T12:01:45.598Z,-23507.16
2023-04-24T12:03:52.169Z,-23522.69
2023-04-24T12:06:06.240Z,-23522.69
2023-04-24T12:08:09.067Z,-23539.16
2023-04-24T12:10:12.345Z,-23536.28
2023-04-24T12:12:17.219Z,-23543.88
2023-04-24T12:14:19.907Z,-23537.56
2023-04-24T12:16:22.758Z,-23542.78
2023-04-24T12:18:25.835Z,-23549.59
2023-04-24T12:20:31.814Z,-23543.25
2023-04-24T12:22:47.751Z,-23534.88
2023-04-24T12:25:01.879Z,-23514.13
2023-04-24T12:27:04.735Z,-23514.75
2023-04-24T12:29:08.914Z,-23513.97
2023-04-24T12:31:11.598Z,-23502.56
2023-04-24T12:33:14.288Z,-23509.69
2023-04-24T12:35:22.504Z,-23516.97
2023-04-24T12:37:27.651Z,-23516.50
2023-04-24T12:39:30.277Z,-23519.03
2023-04-24T12:41:33.008Z,-23531.22
2023-04-24T12:43:36.191Z,-23530.59
2023-04-24T12:45:38.791Z,-23525.22
2023-04-24T12:47:42.311Z,-23527.91
2023-04-24T12:49:44.954Z,-23529.00
2023-04-24T12:51:47.666Z,-23527.75
2023-04-24T12:53:51.648Z,-23520.47
2023-04-24T12:55:54.388Z,-23517.13
2023-04-24T12:57:57.095Z,-23516.34
2023-04-24T13:00:00.852Z,-23500.97
2023-04-24T13:02:03.770Z,-23506.06
2023-04-24T13:04:07.305Z,-23491.47
2023-04-24T13:06:13.006Z,-23497.66
2023-04-24T13:08:15.721Z,-23497.50
2023-04-24T13:10:20.095Z,-23492.59
2023-04-24T13:12:24.787Z,-23491.16
2023-04-24T13:14:27.611Z,-23492.59
2023-04-24T13:16:30.279Z,-23493.22
2023-04-24T13:18:32.960Z,-23488.94
2023-04-24T13:20:36.498Z,-23477.03
2023-04-24T13:22:39.167Z,-23487.19
2023-04-24T13:24:42.433Z,-23482.44
2023-04-24T13:26:46.509Z,-23482.13
2023-04-24T13:28:49.124Z,-23495.28
2023-04-24T13:30:52.358Z,-23509.84
2023-04-24T13:32:55.337Z,-23538.84
2023-04-24T13:34:58.849Z,-23542.31
2023-04-24T13:37:01.587Z,-23521.72
2023-04-24T13:39:05.357Z,-23529.34
2023-04-24T13:41:08.068Z,-23520.94
2023-04-24T13:43:12.027Z,-23521.09
2023-04-24T13:45:24.699Z,-23519.34
2023-04-24T13:47:28.220Z,-23515.72
2023-04-24T13:49:30.927Z,-23508.09
2023-04-24T13:51:34.290Z,-23505.09
2023-04-24T13:53:39.283Z,-23502.88
2023-04-24T13:55:42.004Z,-23499.56
2023-04-24T13:57:44.853Z,-23503.03
2023-04-24T13:59:48.876Z,-23499.25
2023-04-24T14:01:51.601Z,-23479.91
2023-04-24T14:03:54.884Z,-23479.91
2023-04-24T14:05:58.521Z,-23472.59
2023-04-24T14:08:01.193Z,-23484.50
2023-04-24T14:10:03.965Z,-23500.03
2023-04-24T14:12:07.935Z,-23515.56
2023-04-24T14:14:10.727Z,-23525.22
2023-04-24T14:16:15.145Z,-23530.28
2023-04-24T14:18:18.314Z,-23512.53
2023-04-24T14:20:21.338Z,-23514.28
2023-04-24T14:22:24.014Z,-23499.56
2023-04-24T14:24:26.702Z,-23506.22
2023-04-24T14:26:29.407Z,-23492.25
2023-04-24T14:28:32.286Z,-23495.28
2023-04-24T14:30:35.062Z,-23483.38
2023-04-24T14:32:40.468Z,-23482.28
2023-04-24T14:34:43.208Z,-23484.03
2023-04-24T14:36:45.971Z,-23478.31
2023-04-24T14:38:48.703Z,-23486.09
2023-04-24T14:42:58.192Z,-23505.56
2023-04-24T14:45:00.990Z,-23513.19
2023-04-24T14:47:03.806Z,-23493.69
2023-04-24T14:49:10.525Z,-23512.53
2023-04-24T14:51:13.306Z,-23519.50
2023-04-24T14:53:17.340Z,-23532.81
2023-04-24T14:55:20.180Z,-23514.75
2023-04-24T14:57:22.933Z,-23527.91
2023-04-24T14:59:25.672Z,-23524.72
2023-04-24T15:01:28.305Z,-23533.13
2023-04-24T15:03:32.034Z,-23531.53
2023-04-24T15:05:36.839Z,-23544.84
2023-04-24T15:07:39.930Z,-23545.78
2023-04-24T15:09:44.009Z,-23545.16
2023-04-24T15:11:46.638Z,-23530.91
2023-04-24T15:13:49.454Z,-23524.09
2023-04-24T15:15:52.247Z,-23516.34
2023-04-24T15:17:54.930Z,-23523.00
2023-04-24T15:19:57.929Z,-23514.44
2023-04-24T15:22:01.996Z,-23518.09
2023-04-24T15:24:04.950Z,-23509.06
2023-04-24T15:26:07.651Z,-23501.94
2023-04-24T15:28:11.614Z,-23510.81
2023-04-24T15:30:15.276Z,-23509.38
2023-04-24T15:32:18.079Z,-23505.25
2023-04-24T15:34:21.033Z,-23511.28
2023-04-24T15:36:23.802Z,-23505.91
2023-04-24T15:38:27.897Z,-23507.31
2023-04-24T15:40:30.530Z,-23506.53
2023-04-24T15:42:33.248Z,-23500.34
2023-04-24T15:44:36.251Z,-23498.28
2023-04-24T15:46:39.026Z,-23501.47
2023-04-24T15:48:43.800Z,-23499.25
2023-04-24T15:50:46.512Z,-23501.94
2023-04-24T15:52:49.234Z,-23507.47
2023-04-24T15:54:53.291Z,-23491.00
2023-04-24T15:56:56.015Z,-23491.94
2023-04-24T15:58:59.089Z,-23488.78
2023-04-24T16:01:01.880Z,-23480.22
2023-04-24T16:03:05.378Z,-23488.63
2023-04-24T16:05:09.978Z,-23480.22
2023-04-24T16:07:12.601Z,-23490.38
2023-04-24T16:09:15.309Z,-23489.56
2023-04-24T16:11:19.462Z,-23502.56
2023-04-24T16:13:22.217Z,-23505.56
2023-04-24T16:15:24.910Z,-23491.63
2023-04-24T16:17:27.528Z,-23492.25
2023-04-24T16:19:30.333Z,-23497.03
2023-04-24T16:21:32.994Z,-23501.47
2023-04-24T16:23:36.324Z,-23499.88
2023-04-24T16:25:39.014Z,-23489.72
2023-04-24T16:27:43.094Z,-23487.50
2023-04-24T16:29:46.164Z,-23487.66
2023-04-24T16:31:49.116Z,-23487.34
2023-04-24T16:33:51.824Z,-23490.53
2023-04-24T16:35:54.569Z,-23488.47
2023-04-24T16:37:57.280Z,-23490.38
2023-04-24T16:40:00.179Z,-23493.84
2023-04-24T16:42:02.938Z,-23491.31
2023-04-24T16:44:07.074Z,-23493.53
2023-04-24T16:46:09.814Z,-23489.25
2023-04-24T16:48:12.486Z,-23491.94
2023-04-24T16:50:15.203Z,-23496.06
2023-04-24T16:52:17.964Z,-23497.66
2023-04-24T16:54:20.669Z,-23498.44
2023-04-24T16:56:23.294Z,-23503.84
2023-04-24T16:58:26.099Z,-23504.94
2023-04-24T17:00:30.145Z,-23508.44
2023-04-24T17:02:32.998Z,-23509.22
2023-04-24T17:04:36.503Z,-23509.38
2023-04-24T17:06:39.310Z,-23510.00
2023-04-24T17:08:41.939Z,-23515.41
2023-04-24T17:10:44.626Z,-23514.75
2023-04-24T17:12:47.277Z,-23512.72
2023-04-24T17:14:49.896Z,-23515.06
2023-04-24T17:16:54.351Z,-23521.41
2023-04-24T17:18:57.098Z,-23520.94
2023-04-24T17:20:59.795Z,-23522.03
2023-04-24T17:23:02.553Z,-23516.97
2023-04-24T17:25:05.973Z,-23516.97
2023-04-24T17:27:14.955Z,-23514.59
2023-04-24T17:29:18.225Z,-23519.81
2023-04-24T17:31:21.061Z,-23516.81
2023-04-24T17:33:25.116Z,-23513.19
2023-04-24T17:35:27.791Z,-23510.66
2023-04-24T17:37:30.615Z,-23508.44
2023-04-24T17:39:33.303Z,-23507.94
2023-04-24T17:41:35.936Z,-23504.78
2023-04-24T17:43:38.513Z,-23502.72
2023-04-24T17:45:41.336Z,-23500.19
2023-04-24T17:47:44.100Z,-23497.03
2023-04-24T17:49:48.222Z,-23495.44
2023-04-24T17:51:50.943Z,-23493.53
2023-04-24T17:53:53.628Z,-23494.50
2023-04-24T17:55:59.208Z,-23494.50
2023-04-24T17:58:02.987Z,-23494.16
2023-04-24T18:00:07.052Z,-23489.72
2023-04-24T18:02:09.893Z,-23491.00
2023-04-24T18:04:12.930Z,-23488.47
2023-04-24T18:06:18.737Z,-23491.00
2023-04-24T18:08:21.346Z,-23487.84
2023-04-24T18:10:24.082Z,-23489.56
2023-04-24T18:12:27.256Z,-23487.84
2023-04-24T18:14:30.262Z,-23487.19
2023-04-24T18:16:32.977Z,-23487.19
2023-04-24T18:18:35.739Z,-23488.47
2023-04-24T18:20:38.505Z,-23487.50
2023-04-24T18:22:43.101Z,-23486.72
2023-04-24T18:24:45.809Z,-23487.66
2023-04-24T18:26:48.433Z,-23486.41
2023-04-24T18:28:51.177Z,-23489.72
2023-04-24T18:30:53.913Z,-23485.75
2023-04-24T18:32:56.646Z,-23484.66
2023-04-24T18:34:59.376Z,-23480.22
2023-04-24T18:37:01.976Z,-23478.94
2023-04-24T18:39:06.081Z,-23479.75
2023-04-24T18:41:08.825Z,-23478.94
2023-04-24T18:43:11.517Z,-23478.31
2023-04-24T18:45:15.326Z,-23478.94
2023-04-24T18:47:18.205Z,-23471.97
2023-04-24T18:49:20.868Z,-23471.97
2023-04-24T18:51:23.609Z,-23471.81
2023-04-24T18:53:26.264Z,-23468.63
2023-04-24T18:55:30.369Z,-23469.75
2023-04-24T18:57:33.216Z,-23465.63
2023-04-24T18:59:35.880Z,-23468.16
2023-04-24T19:01:39.203Z,-23468.16
2023-04-24T19:03:41.860Z,-23466.44
2023-04-24T19:05:44.619Z,-23466.44
2023-04-24T19:07:47.288Z,-23463.56
2023-04-24T19:09:49.925Z,-23462.13
2023-04-24T19:11:53.968Z,-23464.38
2023-04-24T19:13:57.025Z,-23462.63
2023-04-24T19:15:59.722Z,-23460.88
2023-04-24T19:18:02.404Z,-23456.59
2023-04-24T19:20:05.634Z,-23457.84
2023-04-24T19:22:08.544Z,-23457.38
2023-04-24T19:24:11.779Z,-23457.38
2023-04-24T19:26:14.626Z,-23455.16
2023-04-24T19:28:18.699Z,-23454.22
2023-04-24T19:30:21.509Z,-23452.16
2023-04-24T19:32:24.364Z,-23449.78
2023-04-24T19:34:27.399Z,-23449.78
2023-04-24T19:36:32.381Z,-23446.91
2023-04-24T19:38:35.170Z,-23448.50
2023-04-24T19:40:37.959Z,-23441.84
2023-04-24T19:42:44.404Z,-23443.59
2023-04-24T19:44:48.782Z,-23435.47
2023-04-24T19:46:51.582Z,-23432.00
2023-04-24T19:48:54.347Z,-23432.00
2023-04-24T19:50:57.075Z,-23428.50
2023-04-24T19:52:59.939Z,-23425.63
2023-04-24T19:55:02.697Z,-23425.97
2023-04-24T19:57:05.543Z,-23423.72
2023-04-24T19:59:08.781Z,-23423.72
2023-04-24T20:01:12.836Z,-23422.47
2023-04-24T20:03:25.534Z,-23424.69
2023-04-24T20:05:35.266Z,-23419.13
2023-04-24T20:07:37.887Z,-23419.59
2023-04-24T20:09:40.527Z,-23417.38
2023-04-24T20:11:43.178Z,-23417.06
2023-04-24T20:13:45.894Z,-23417.69
2023-04-24T20:15:48.582Z,-23418.50
2023-04-24T20:17:52.584Z,-23416.28
2023-04-24T20:19:55.388Z,-23417.38
2023-04-24T20:21:58.219Z,-23414.84
2023-04-24T20:24:00.866Z,-23416.09
2023-04-24T20:26:04.826Z,-23414.69
2023-04-24T20:28:07.620Z,-23412.47
2023-04-24T20:30:13.239Z,-23414.84
2023-04-24T20:32:16.228Z,-23410.06
2023-04-24T20:34:20.339Z,-23411.97
2023-04-24T20:36:22.990Z,-23411.34
2023-04-24T20:38:25.660Z,-23412.31
2023-04-24T20:40:29.825Z,-23411.50
2023-04-24T20:42:34.216Z,-23411.34
2023-04-24T20:44:36.873Z,-23414.84
2023-04-24T20:46:39.821Z,-23408.34
2023-04-24T20:48:42.599Z,-23408.66
2023-04-24T20:50:46.598Z,-23405.47
2023-04-24T20:52:49.391Z,-23404.03
2023-04-24T20:54:52.010Z,-23406.28
2023-04-24T20:56:54.735Z,-23403.25
2023-04-24T20:58:57.678Z,-23398.16
2023-04-24T21:01:00.535Z,-23399.13
2023-04-24T21:03:03.571Z,-23401.19
2023-04-24T21:05:07.191Z,-23402.13
2023-04-24T21:07:12.857Z,-23401.03
2023-04-24T21:09:15.536Z,-23398.00
2023-04-24T21:11:18.283Z,-23395.16
2023-04-24T21:13:20.920Z,-23395.16
2023-04-24T21:15:23.600Z,-23396.09
2023-04-24T21:17:26.440Z,-23395.47
2023-04-24T21:19:29.098Z,-23395.47
2023-04-24T21:21:32.055Z,-23393.22
2023-04-24T21:23:36.190Z,-23393.72
2023-04-24T21:25:39.412Z,-23390.69
2023-04-24T21:27:42.190Z,-23392.91
2023-04-24T21:29:44.979Z,-23390.53
2023-04-24T21:31:47.724Z,-23390.38
2023-04-24T21:33:50.940Z,-23385.59
2023-04-24T21:35:53.833Z,-23388.94
2023-04-24T21:37:56.596Z,-23389.44
2023-04-24T21:40:00.753Z,-23390.22
2023-04-24T21:42:03.930Z,-23389.59
2023-04-24T21:44:06.702Z,-23392.44
2023-04-24T21:46:09.501Z,-23390.06
2023-04-24T21:48:12.239Z,-23390.38
2023-04-24T21:50:14.888Z,-23385.28
2023-04-24T21:52:17.522Z,-23384.03
2023-04-24T21:54:20.710Z,-23382.75
2023-04-24T21:56:24.779Z,-23383.38
2023-04-24T21:58:27.982Z,-23385.78
2023-04-24T22:00:30.694Z,-23385.59
2023-04-24T22:02:34.003Z,-23386.25
2023-04-24T22:04:36.899Z,-23388.47
2023-04-24T22:06:39.709Z,-23395.47
2023-04-24T22:08:43.751Z,-23394.19
2023-04-24T22:10:46.738Z,-23399.91
2023-04-24T22:12:50.824Z,-23395.94
2023-04-24T22:14:53.457Z,-23396.09
2023-04-24T22:16:57.031Z,-23393.09
2023-04-24T22:18:59.733Z,-23396.09
2023-04-24T22:21:02.410Z,-23390.22
2023-04-24T22:23:05.828Z,-23395.47
2023-04-24T22:25:09.916Z,-23401.03
2023-04-24T22:27:12.540Z,-23394.50
2023-04-24T22:29:16.517Z,-23398.31
2023-04-24T22:31:19.253Z,-23390.06
2023-04-24T22:33:21.964Z,-23391.97
2023-04-24T22:35:24.644Z,-23392.59
2023-04-24T22:37:27.790Z,-23393.09
2023-04-24T22:39:30.534Z,-23395.47
2023-04-24T22:41:33.213Z,-23396.88
2023-04-24T22:43:36.311Z,-23397.84
2023-04-24T22:45:41.127Z,-23397.69
2023-04-24T22:47:44.122Z,-23399.91
2023-04-24T22:49:47.680Z,-23397.22
2023-04-24T22:51:51.795Z,-23398.97
2023-04-24T22:53:56.314Z,-23401.97
2023-04-24T22:55:59.036Z,-23400.38
2023-04-24T22:58:02.510Z,-23402.78
2023-04-24T23:00:09.193Z,-23402.13
2023-04-24T23:02:13.552Z,-23403.09
2023-04-24T23:04:16.275Z,-23401.34
2023-04-24T23:06:18.971Z,-23401.34
2023-04-24T23:08:21.626Z,-23402.13
2023-04-24T23:10:24.414Z,-23404.69
2023-04-24T23:12:27.084Z,-23401.19
2023-04-24T23:14:29.850Z,-23399.91
2023-04-24T23:16:32.622Z,-23399.91
2023-04-24T23:18:36.739Z,-23401.97
2023-04-24T23:20:39.521Z,-23405.00
2023-04-24T23:22:42.483Z,-23405.47
2023-04-24T23:24:45.725Z,-23405.63
2023-04-24T23:26:48.375Z,-23402.44
2023-04-24T23:28:51.335Z,-23403.41
2023-04-24T23:30:54.051Z,-23407.53
2023-04-24T23:32:56.764Z,-23400.88
2023-04-24T23:35:00.762Z,-23400.72